Time;durP1;ratioP1;P1;durP2;ratioP2;P2;SDS_P1;SDS_P2;PMS_P1;PMS_P2;Temp;Humidity;BMP_temperature;BMP_pressure;BME280_temperature;BME280_humidity;BME280_pressure;Samples;Min_cycle;Max_cycle;Signal;HPM_P1;HPM_P2
2022/06/24 00:00:12;;;;;;;5.40;1.83;;;;;;;17.91;100.00;100610.50;4986896;28;20479;-75
2022/06/24 00:02:39;;;;;;;2.35;1.67;;;;;;;17.93;100.00;100608.44;4987926;28;20034;-75
2022/06/24 00:05:09;;;;;;;;;;;;;;;17.92;100.00;100593.28;4988851;28;20499;-75
2022/06/24 00:07:50;;;;;;;4.38;2.05;;;;;;;17.91;100.00;100591.59;5019989;28;19918;-76
2022/06/24 00:10:21;;;;;;;3.42;1.70;;;;;;;17.89;100.00;100591.03;5019676;28;20030;-75
2022/06/24 00:12:47;;;;;;;2.63;1.40;;;;;;;17.88;100.00;100582.06;4987902;28;20030;-75
2022/06/24 00:15:13;;;;;;;4.45;1.88;;;;;;;17.84;100.00;100571.91;4986836;28;20080;-75
2022/06/24 00:17:39;;;;;;;1.52;1.20;;;;;;;17.80;100.00;100570.66;5019442;28;20030;-75
2022/06/24 00:20:15;;;;;;;2.67;1.45;;;;;;;17.75;100.00;100568.63;4987656;28;20455;-75
2022/06/24 00:22:42;;;;;;;1.65;1.55;;;;;;;17.76;100.00;100561.34;4987723;28;20030;-75
2022/06/24 00:25:14;;;;;;;1.65;1.52;;;;;;;17.71;100.00;100543.06;4987789;28;20037;-74
2022/06/24 00:27:41;;;;;;;1.85;1.15;;;;;;;17.64;100.00;100550.38;5003032;28;20058;-75
2022/06/24 00:30:16;;;;;;;2.58;1.65;;;;;;;17.68;100.00;100541.63;5002766;28;20057;-75
2022/06/24 00:32:42;;;;;;;2.22;1.55;;;;;;;17.61;100.00;100542.72;4987154;28;20395;-75
2022/06/24 00:35:16;;;;;;;1.75;1.27;;;;;;;17.62;100.00;100537.09;4987853;28;20399;-75
2022/06/24 00:37:42;;;;;;;1.50;1.13;;;;;;;17.59;100.00;100537.53;4994483;28;20026;-75
2022/06/24 00:40:11;;;;;;;1.30;1.20;;;;;;;17.65;100.00;100527.72;4987507;28;20026;-75
2022/06/24 00:42:38;;;;;;;3.50;1.40;;;;;;;17.60;100.00;100514.88;4987339;28;20513;-75
2022/06/24 00:45:45;;;;;;;2.10;1.17;;;;;;;17.59;100.00;100507.00;4978206;28;20031;-75
2022/06/24 00:48:14;;;;;;;2.33;1.23;;;;;;;17.56;100.00;100520.91;4968046;28;20066;-75
2022/06/24 00:50:44;;;;;;;2.17;1.40;;;;;;;17.56;100.00;100504.72;4984613;28;20030;-76
2022/06/24 00:53:10;;;;;;;1.38;1.17;;;;;;;17.60;100.00;100493.28;4959981;28;20100;-75
2022/06/24 00:55:37;;;;;;;1.80;1.30;;;;;;;17.54;100.00;100466.34;4987501;28;20022;-75
2022/06/24 00:58:04;;;;;;;2.10;1.52;;;;;;;17.52;100.00;100471.94;4987397;28;20030;-75
2022/06/24 01:00:32;;;;;;;1.27;1.17;;;;;;;17.56;100.00;100475.88;4987090;28;20027;-75
2022/06/24 01:03:05;;;;;;;2.78;1.42;;;;;;;17.46;100.00;100473.59;4993623;28;20037;-75
2022/06/24 01:05:33;;;;;;;1.83;1.08;;;;;;;17.43;100.00;100490.25;4979569;28;20034;-75
2022/06/24 01:08:06;;;;;;;2.38;1.38;;;;;;;17.36;100.00;100478.66;4987219;28;20049;-75
2022/06/24 01:10:32;;;;;;;3.50;1.35;;;;;;;17.38;100.00;100479.25;5017786;28;20419;-75
2022/06/24 01:12:57;;;;;;;1.50;1.30;;;;;;;17.42;100.00;100463.47;4986941;28;20057;-75
2022/06/24 01:15:23;;;;;;;1.83;1.20;;;;;;;17.43;100.00;100467.84;5010267;28;20273;-75
2022/06/24 01:17:48;;;;;;;3.78;1.20;;;;;;;17.49;100.00;100456.19;4987008;28;20034;-76
2022/06/24 01:20:14;;;;;;;1.42;1.33;;;;;;;17.36;100.00;100451.66;4991190;28;20078;-75
2022/06/24 01:22:40;;;;;;;2.10;1.20;;;;;;;17.30;100.00;100474.09;4993258;28;20027;-75
2022/06/24 01:25:07;;;;;;;3.05;1.20;;;;;;;17.33;100.00;100448.59;5018462;28;20038;-76
2022/06/24 01:27:33;;;;;;;4.20;1.20;;;;;;;17.25;100.00;100450.44;5018708;28;20375;-74
2022/06/24 01:29:58;;;;;;;2.63;1.50;;;;;;;17.24;100.00;100448.81;5018187;28;20046;-75
2022/06/24 01:32:24;;;;;;;4.13;1.77;;;;;;;17.19;100.00;100462.13;5018190;28;20030;-75
2022/06/24 01:34:49;;;;;;;2.87;1.20;;;;;;;17.18;100.00;100467.72;4986532;28;20061;-75
2022/06/24 01:37:14;;;;;;;1.63;1.23;;;;;;;17.13;100.00;100475.63;4993541;28;20116;-76
2022/06/24 01:39:40;;;;;;;1.40;1.30;;;;;;;17.14;100.00;100469.16;5001639;28;20034;-75
2022/06/24 01:42:06;;;;;;;3.00;1.42;;;;;;;17.15;100.00;100482.44;4985065;28;20034;-75
2022/06/24 01:44:32;;;;;;;;;;;;;;;17.09;100.00;100485.97;4986970;28;20038;-75
2022/06/24 01:46:57;;;;;;;;;;;;;;;17.05;100.00;100503.66;4986514;28;19914;-75
2022/06/24 01:49:23;;;;;;;1.60;1.47;;;;;;;17.02;100.00;100514.84;4986622;28;19985;-75
2022/06/24 01:51:51;;;;;;;3.15;1.70;;;;;;;17.02;100.00;100515.69;5001369;28;20030;-75
2022/06/24 01:54:17;;;;;;;3.85;1.50;;;;;;;17.02;100.00;100515.69;4986517;28;20096;-75
2022/06/24 01:56:42;;;;;;;2.42;1.38;;;;;;;16.93;100.00;100514.25;5017885;28;20018;-75
2022/06/24 01:59:08;;;;;;;1.98;1.50;;;;;;;16.92;100.00;100517.16;5017837;28;20042;-76
2022/06/24 02:01:33;;;;;;;2.53;1.70;;;;;;;16.90;100.00;100521.91;4986379;28;20026;-75
2022/06/24 02:03:59;;;;;;;2.67;1.67;;;;;;;16.87;100.00;100526.69;4985017;28;20046;-75
2022/06/24 02:06:24;;;;;;;2.73;1.50;;;;;;;16.83;100.00;100530.00;5001623;28;20030;-75
2022/06/24 02:08:51;;;;;;;1.73;1.43;;;;;;;16.77;100.00;100544.31;4993080;28;20070;-75
2022/06/24 02:14:03;;;;;;;2.53;1.52;;;;;;;16.76;100.00;100513.81;4986164;28;20444;-75
2022/06/24 02:16:29;;;;;;;1.90;1.70;;;;;;;16.77;100.00;100522.75;4985305;28;20026;-75
2022/06/24 02:18:55;;;;;;;2.20;1.58;;;;;;;16.80;100.00;100522.34;4986369;28;20512;-75
2022/06/24 02:21:22;;;;;;;2.40;1.83;;;;;;;16.77;100.00;100526.25;4978460;28;20034;-75
2022/06/24 02:23:48;;;;;;;3.83;2.03;;;;;;;16.79;100.00;100529.63;4989720;28;20495;-75
2022/06/24 02:26:13;;;;;;;5.18;1.77;;;;;;;16.84;100.00;100535.22;5013483;28;20018;-75
2022/06/24 02:28:39;;;;;;;2.75;1.95;;;;;;;16.76;100.00;100532.69;4990183;28;20112;-75
2022/06/24 02:31:06;;;;;;;2.47;1.60;;;;;;;16.75;100.00;100538.31;4989877;28;20030;-75
2022/06/24 02:33:32;;;;;;;3.22;2.47;;;;;;;16.81;100.00;100545.56;4989776;28;20030;-75
2022/06/24 02:35:57;;;;;;;1.88;1.60;;;;;;;16.75;100.00;100535.59;4989791;28;20030;-75
2022/06/24 02:38:23;;;;;;;2.77;2.00;;;;;;;16.75;100.00;100547.22;4989797;28;20038;-75
2022/06/24 02:40:48;;;;;;;2.77;1.80;;;;;;;16.74;100.00;100547.41;5004655;28;20274;-75
2022/06/24 02:43:24;;;;;;;5.23;2.30;;;;;;;16.76;100.00;100550.72;4989335;28;20042;-75
2022/06/24 02:46:10;;;;;;;3.60;2.10;;;;;;;16.81;100.00;100553.66;4989668;28;20046;-75
2022/06/24 02:48:37;;;;;;;4.80;2.00;;;;;;;16.85;100.00;100553.03;4982709;28;20039;-75
2022/06/24 02:51:06;;;;;;;3.90;2.33;;;;;;;16.75;100.00;100547.22;4989452;28;20506;-75
2022/06/24 02:53:32;;;;;;;6.00;2.58;;;;;;;16.76;100.00;100550.72;4989346;28;20030;-76
2022/06/24 02:56:01;;;;;;;3.55;3.22;;;;;;;16.78;100.00;100554.88;5004650;28;20467;-75
2022/06/24 02:58:27;;;;;;;3.03;2.40;;;;;;;16.79;100.00;100553.06;4988280;28;20027;-75
2022/06/24 03:00:52;;;;;;;3.47;2.13;;;;;;;16.75;100.00;100549.06;4988174;28;20384;-75
2022/06/24 03:03:20;;;;;;;4.63;2.00;;;;;;;16.69;100.00;100550.72;5004048;28;20093;-75
2022/06/24 03:05:46;;;;;;;2.80;2.28;;;;;;;16.74;100.00;100571.66;4989272;28;20026;-75
2022/06/24 03:08:13;;;;;;;5.78;2.28;;;;;;;16.79;100.00;100567.38;4987870;28;20038;-75
2022/06/24 03:10:39;;;;;;;3.53;2.55;;;;;;;16.80;100.00;100566.31;4979564;28;20046;-75
2022/06/24 03:13:04;;;;;;;3.22;2.03;;;;;;;16.82;100.00;100556.16;5020336;28;20044;-75
2022/06/24 03:15:31;;;;;;;3.43;2.70;;;;;;;16.80;100.00;100554.69;4989379;28;20055;-75
2022/06/24 03:17:57;;;;;;;3.28;2.90;;;;;;;16.75;100.00;100571.47;4987972;28;20042;-75
2022/06/24 03:20:22;;;;;;;3.42;2.17;;;;;;;16.80;100.00;100577.09;4989174;28;20065;-75
2022/06/24 03:22:48;;;;;;;4.90;2.50;;;;;;;16.78;100.00;100567.53;4988873;28;20030;-75
2022/06/24 03:25:13;;;;;;;4.40;2.10;;;;;;;16.75;100.00;100576.84;4989231;28;20054;-75
2022/06/24 03:27:39;;;;;;;3.30;2.30;;;;;;;16.75;100.00;100574.16;5020812;28;20045;-75
2022/06/24 03:30:06;;;;;;;4.70;2.30;;;;;;;16.86;100.00;100565.50;4995599;28;20045;-76
2022/06/24 03:32:32;;;;;;;4.13;2.10;;;;;;;16.84;100.00;100548.69;4986480;28;20034;-76
2022/06/24 03:34:58;;;;;;;6.07;2.53;;;;;;;16.84;100.00;100548.69;5003930;28;20088;-75
2022/06/24 03:37:23;;;;;;;5.65;3.00;;;;;;;16.78;100.00;100549.47;5019814;28;20249;-75
2022/06/24 03:39:49;;;;;;;5.33;2.97;;;;;;;16.81;100.00;100559.03;4987285;28;20054;-75
2022/06/24 03:42:14;;;;;;;2.70;2.50;;;;;;;16.85;100.00;100554.91;4987754;28;20038;-75
2022/06/24 03:44:39;;;;;;;3.00;2.80;;;;;;;16.92;100.00;100552.22;5020113;28;20084;-75
2022/06/24 03:47:05;;;;;;;3.33;2.77;;;;;;;16.92;100.00;100547.63;4995385;28;20097;-75
2022/06/24 03:49:31;;;;;;;4.77;2.60;;;;;;;16.96;100.00;100548.06;4988361;28;20304;-75
2022/06/24 03:51:56;;;;;;;3.08;2.65;;;;;;;17.08;100.00;100549.06;4988294;28;20038;-76
2022/06/24 03:54:22;;;;;;;4.27;2.83;;;;;;;17.09;100.00;100534.53;4995353;28;20109;-75
2022/06/24 03:56:47;;;;;;;4.72;3.03;;;;;;;17.21;100.00;100519.38;4979004;28;20293;-75
2022/06/24 03:59:13;;;;;;;5.97;3.13;;;;;;;17.21;100.00;100514.00;5019821;28;20762;-75
2022/06/24 04:01:38;;;;;;;4.93;2.87;;;;;;;17.30;100.00;100522.66;4988517;28;20604;-75
2022/06/24 04:04:03;;;;;;;3.03;2.73;;;;;;;17.46;100.00;100519.50;4994713;28;20041;-75
2022/06/24 04:06:29;;;;;;;3.20;2.40;;;;;;;17.52;100.00;100513.25;5019976;28;20088;-75
2022/06/24 04:08:55;;;;;;;6.10;3.20;;;;;;;17.52;100.00;100504.31;4988228;28;20093;-75
2022/06/24 04:11:21;;;;;;;3.13;2.60;;;;;;;17.56;100.00;100499.31;4987858;28;20289;-75
2022/06/24 04:13:46;;;;;;;2.90;2.60;;;;;;;17.55;100.00;100487.69;5019603;28;20496;-76
2022/06/24 04:16:12;;;;;;;3.77;2.43;;;;;;;17.68;100.00;100487.66;5003186;28;20158;-76
2022/06/24 04:18:38;;;;;;;2.83;2.40;;;;;;;17.71;100.00;100470.19;4986911;28;20062;-76
2022/06/24 04:21:15;;;;;;;3.23;2.93;;;;;;;17.89;100.00;100466.78;5002879;28;20057;-75
2022/06/24 04:23:41;;;;;;;4.80;3.45;;;;;;;17.88;100.00;100447.03;4986464;28;20520;-75
2022/06/24 04:26:07;;;;;;;4.60;4.00;;;;;;;17.96;100.00;100440.56;4987483;28;20062;-76
2022/06/24 04:28:33;;;;;;;3.00;2.67;;;;;;;18.11;100.00;100424.03;4987756;28;20097;-75
2022/06/24 04:30:58;;;;;;;3.13;2.50;;;;;;;18.11;100.00;100403.25;4986237;28;20050;-75
2022/06/24 04:33:24;;;;;;;4.43;2.40;;;;;;;18.19;100.00;100407.56;5018835;28;20038;-74
2022/06/24 04:35:49;;;;;;;4.07;2.83;;;;;;;18.26;100.00;100396.69;5019460;28;20089;-76
2022/06/24 04:38:15;;;;;;;3.90;2.50;;;;;;;18.36;100.00;100383.50;5019048;28;20400;-76
2022/06/24 04:40:41;;;;;;;8.73;2.72;;;;;;;18.37;100.00;100365.41;4986182;28;20029;-75
2022/06/24 04:43:07;;;;;;;3.53;2.13;;;;;;;18.50;100.00;100360.69;4985863;28;20089;-76
2022/06/24 04:45:33;;;;;;;3.95;2.70;;;;;;;18.60;100.00;100338.53;5018355;28;20104;-76
2022/06/24 04:47:59;;;;;;;2.70;2.22;;;;;;;18.67;100.00;100336.59;4977056;28;20483;-75
2022/06/24 04:50:24;;;;;;;3.80;2.33;;;;;;;18.82;100.00;100319.19;4986485;28;20096;-76
2022/06/24 04:52:50;;;;;;;4.60;2.20;;;;;;;18.80;100.00;100297.78;4985038;28;20034;-76
2022/06/24 04:55:15;;;;;;;4.83;2.50;;;;;;;18.90;100.00;100306.19;4986178;28;20773;-75
2022/06/24 04:57:40;;;;;;;4.07;2.60;;;;;;;18.95;100.00;100292.78;4986647;28;20076;-75
2022/06/24 05:00:09;;;;;;;8.33;2.30;;;;;;;19.03;100.00;100263.78;4984788;28;20030;-75
2022/06/24 05:02:35;;;;;;;3.33;2.17;;;;;;;19.15;100.00;100260.06;5018273;28;20093;-76
2022/06/24 05:05:01;;;;;;;4.97;2.75;;;;;;;19.34;100.00;100266.22;5001512;28;20034;-76
2022/06/24 05:07:27;;;;;;;7.35;3.88;;;;;;;19.37;100.00;100251.41;5017669;28;20038;-75
2022/06/24 05:09:53;;;;;;;4.43;2.23;;;;;;;19.51;100.00;100287.22;5017565;28;20060;-76
2022/06/24 05:12:18;;;;;;;2.92;2.65;;;;;;;19.45;100.00;100255.63;5001401;28;20586;-76
2022/06/24 05:14:43;;;;;;;4.00;1.97;;;;;;;19.72;100.00;100311.06;4986387;28;20087;-75
2022/06/24 05:17:09;;;;;;;5.17;2.43;;;;;;;19.67;100.00;100286.53;5000121;28;20078;-75
2022/06/24 05:19:34;;;;;;;4.87;2.70;;;;;;;19.95;100.00;100301.31;5001099;28;20022;-76
2022/06/24 05:21:59;;;;;;;4.60;2.90;;;;;;;20.06;100.00;100270.66;4985304;28;20121;-75
2022/06/24 05:24:25;;;;;;;4.30;2.83;;;;;;;20.02;100.00;100248.63;5000818;28;20022;-76
2022/06/24 05:26:50;;;;;;;6.17;2.80;;;;;;;20.20;100.00;100263.91;5017614;28;20042;-76
2022/06/24 05:29:16;;;;;;;6.90;2.73;;;;;;;20.47;100.00;100260.69;4984864;28;20034;-76
2022/06/24 05:31:42;;;;;;;4.68;2.78;;;;;;;20.32;100.00;100214.28;5000847;28;20129;-75
2022/06/24 05:34:07;;;;;;;3.17;2.88;;;;;;;20.55;100.00;100251.38;4985749;28;20038;-76
2022/06/24 05:36:34;;;;;;;5.07;3.77;;;;;;;20.76;100.00;100236.34;4989667;28;20509;-76
2022/06/24 05:39:05;;;;;;;3.03;2.78;;;;;;;21.06;100.00;100219.81;5017533;28;20297;-76
2022/06/24 05:41:31;;;;;;;4.43;2.58;;;;;;;21.75;100.00;100200.59;4984241;28;20122;-76
2022/06/24 05:43:56;;;;;;;6.43;2.72;;;;;;;22.33;100.00;100147.53;5000450;28;20026;-76
2022/06/24 05:46:22;;;;;;;7.63;2.72;;;;;;;22.71;100.00;100069.56;4991900;28;20046;-76
2022/06/24 05:48:47;;;;;;;5.63;2.80;;;;;;;22.84;100.00;100049.25;4990518;28;20350;-76
2022/06/24 05:51:16;;;;;;;5.70;2.50;;;;;;;23.37;100.00;100090.22;5016586;28;20547;-76
2022/06/24 05:56:27;;;;;;;6.60;2.95;;;;;;;22.77;100.00;100016.81;5016073;28;20034;-76
2022/06/24 05:58:53;;;;;;;3.63;2.85;;;;;;;23.43;100.00;100048.28;4996554;28;20050;-76
2022/06/24 06:01:18;;;;;;;5.70;3.25;;;;;;;23.54;100.00;100109.09;4985486;28;20046;-77
2022/06/24 06:03:44;;;;;;;4.60;2.85;;;;;;;24.58;98.03;100051.94;5016583;28;20030;-76
2022/06/24 06:06:09;;;;;;;4.73;2.70;;;;;;;24.74;94.89;100037.19;4981424;28;20038;-76
2022/06/24 06:08:36;;;;;;;3.45;3.03;;;;;;;24.98;84.59;99881.00;5016640;28;20305;-76
2022/06/24 06:11:10;;;;;;;4.72;3.05;;;;;;;24.56;85.28;99861.22;5000211;28;20123;-76
2022/06/24 06:13:35;;;;;;;5.70;2.60;;;;;;;24.27;93.45;99974.69;4985191;28;20085;-76
2022/06/24 06:16:00;;;;;;;5.33;3.30;;;;;;;25.19;87.55;100013.69;4984112;28;20539;-76
2022/06/24 06:18:26;;;;;;;2.65;2.40;;;;;;;25.87;80.94;99972.16;4985617;28;20026;-76
2022/06/24 06:20:51;;;;;;;3.47;2.55;;;;;;;24.68;84.58;99857.34;5016792;28;20531;-76
2022/06/24 06:23:17;;;;;;;4.68;2.97;;;;;;;25.00;85.47;99966.19;4984437;28;20038;-76
2022/06/24 06:25:42;;;;;;;5.47;2.80;;;;;;;25.08;82.07;99894.63;4985407;28;20037;-76
2022/06/24 06:28:07;;;;;;;4.67;3.10;;;;;;;24.64;91.44;100018.13;4985333;28;20689;-75
2022/06/24 06:30:33;;;;;;;5.50;3.07;;;;;;;24.33;90.33;99932.72;4985193;28;20376;-76
2022/06/24 06:32:58;;;;;;;3.42;3.05;;;;;;;25.24;83.85;99991.00;4985416;28;20030;-76
2022/06/24 06:35:24;;;;;;;5.38;3.13;;;;;;;25.89;81.23;100035.59;4967847;28;20032;-76
2022/06/24 06:37:49;;;;;;;5.28;3.15;;;;;;;25.49;78.86;99910.84;5016411;28;20046;-75
2022/06/24 06:40:14;;;;;;;4.80;2.70;;;;;;;25.76;78.27;99945.13;4984862;28;20040;-73
2022/06/24 06:42:41;;;;;;;4.30;2.85;;;;;;;25.32;79.01;99913.94;5016100;28;20285;-73
2022/06/24 06:45:06;;;;;;;5.40;3.75;;;;;;;23.74;87.89;99795.88;4985328;28;20071;-76
2022/06/24 06:47:33;;;;;;;3.15;2.90;;;;;;;25.13;85.55;100014.75;4985347;28;20113;-76
2022/06/24 06:49:59;;;;;;;4.90;3.50;;;;;;;24.79;82.82;99892.53;4981037;28;20030;-76
2022/06/24 06:52:24;;;;;;;4.13;3.00;;;;;;;25.34;81.38;99990.16;4984722;28;20030;-75
2022/06/24 06:54:50;;;;;;;6.90;3.25;;;;;;;25.64;75.27;99886.16;5016617;28;20045;-76
2022/06/24 06:57:15;;;;;;;2.92;2.70;;;;;;;24.59;84.27;99909.78;5000266;28;20042;-76
2022/06/24 06:59:40;;;;;;;7.67;3.00;;;;;;;24.66;82.56;99865.03;4984777;28;20022;-76
2022/06/24 07:02:06;;;;;;;5.45;3.15;;;;;;;23.95;89.07;99880.34;5016587;28;20031;-75
2022/06/24 07:04:31;;;;;;;5.00;2.97;;;;;;;25.01;83.13;99956.91;4985206;28;20376;-76
2022/06/24 07:06:57;;;;;;;4.72;3.17;;;;;;;25.44;81.79;100006.50;4984877;28;20041;-76
2022/06/24 07:09:22;;;;;;;3.87;3.40;;;;;;;24.97;81.51;99898.50;5002583;28;20491;-76
2022/06/24 07:11:47;;;;;;;5.60;3.67;;;;;;;25.57;75.88;99904.78;5019251;28;20042;-76
2022/06/24 07:14:13;;;;;;;6.27;4.10;;;;;;;24.81;82.47;99893.06;4994772;28;20277;-76
2022/06/24 07:16:38;;;;;;;3.07;2.87;;;;;;;25.96;82.36;100081.75;5019973;28;20393;-73
2022/06/24 07:19:03;;;;;;;5.03;3.03;;;;;;;25.77;75.79;99889.34;4987691;28;20288;-73
2022/06/24 07:21:29;;;;;;;6.10;2.95;;;;;;;25.67;77.93;99917.56;4984243;28;20472;-76
2022/06/24 07:23:54;;;;;;;7.20;3.28;;;;;;;26.30;74.71;99955.16;5019459;28;20030;-75
2022/06/24 07:26:20;;;;;;;4.28;3.67;;;;;;;26.38;68.55;99784.88;4994984;28;20061;-76
2022/06/24 07:28:45;;;;;;;4.13;3.50;;;;;;;25.88;72.02;99784.31;5019911;28;20037;-76
2022/06/24 07:31:15;;;;;;;3.53;3.23;;;;;;;25.15;77.89;99801.47;4988011;28;20114;-75
2022/06/24 07:33:41;;;;;;;8.65;3.58;;;;;;;26.05;74.93;99924.16;4987833;28;20305;-76
2022/06/24 07:36:06;;;;;;;6.60;3.30;;;;;;;25.84;74.31;99863.31;5003039;28;20158;-76
2022/06/24 07:38:32;;;;;;;13.98;3.80;;;;;;;26.35;74.51;99948.84;5019457;28;20038;-76
2022/06/24 07:40:58;;;;;;;5.25;3.08;;;;;;;26.13;72.43;99848.06;4984004;28;20568;-76
2022/06/24 07:43:23;;;;;;;5.55;3.00;;;;;;;26.46;76.28;99996.91;4986492;28;20129;-75
2022/06/24 07:45:51;;;;;;;3.37;3.13;;;;;;;26.38;76.62;99987.38;4988079;28;20034;-75
2022/06/24 07:48:16;;;;;;;6.32;3.30;;;;;;;25.95;75.36;99860.53;4987907;28;20781;-76
2022/06/24 07:50:42;;;;;;;3.95;2.80;;;;;;;26.22;75.13;99906.53;5002685;28;20030;-76
2022/06/24 07:53:07;;;;;;;4.57;3.10;;;;;;;26.60;70.77;99885.66;4983683;28;20030;-77
2022/06/24 07:58:17;;;;;;;3.60;3.05;;;;;;;26.46;69.50;99825.31;4986078;28;20069;-74
2022/06/24 08:00:42;;;;;;;4.30;3.17;;;;;;;26.45;69.24;99820.09;5002452;28;20054;-73
2022/06/24 08:03:07;;;;;;;3.67;3.33;;;;;;;26.90;68.43;99883.69;4985877;28;20355;-75
2022/06/24 08:05:33;;;;;;;6.22;3.33;;;;;;;25.63;71.34;99695.94;5018977;28;20090;-75
2022/06/24 08:07:58;;;;;;;4.25;3.75;;;;;;;25.39;75.89;99757.91;4982054;28;20070;-75
2022/06/24 08:10:24;;;;;;;4.88;3.38;;;;;;;25.51;76.83;99793.88;4987366;28;20033;-73
2022/06/24 08:12:49;;;;;;;9.65;3.50;;;;;;;26.08;79.86;99970.09;5002131;28;20062;-76
2022/06/24 08:15:16;;;;;;;6.83;3.10;;;;;;;26.20;76.18;99886.84;4985964;28;20340;-76
2022/06/24 08:17:42;;;;;;;5.82;3.72;;;;;;;26.15;70.50;99733.72;5018578;28;20656;-76
2022/06/24 08:20:08;;;;;;;7.53;4.70;;;;;;;25.41;75.15;99701.88;4986386;28;20479;-76
2022/06/24 08:22:33;;;;;;;;;;;;;;;25.87;82.30;99960.38;4987237;28;20428;-77
2022/06/24 08:24:59;;;;;;;5.85;3.72;;;;;;;25.75;75.45;99776.72;4987707;28;19916;-76
2022/06/24 08:27:25;;;;;;;4.95;3.40;;;;;;;25.43;85.13;99917.44;4987539;28;20030;-77
2022/06/24 08:29:50;;;;;;;3.93;3.57;;;;;;;25.97;76.33;99825.53;5018638;28;20085;-76
2022/06/24 08:32:16;;;;;;;6.63;3.83;;;;;;;26.25;79.14;99956.03;5001786;28;20175;-76
2022/06/24 08:34:41;;;;;;;3.60;3.13;;;;;;;26.67;71.41;99845.06;4986547;28;20022;-77
2022/06/24 08:37:07;;;;;;;5.25;3.55;;;;;;;26.72;72.66;99877.06;4986913;28;20042;-77
2022/06/24 08:39:32;;;;;;;7.82;4.53;;;;;;;26.66;74.65;99916.53;5018459;28;20026;-76
2022/06/24 08:41:58;;;;;;;6.22;4.00;;;;;;;26.28;72.51;99798.69;4986880;28;20034;-76
2022/06/24 08:44:23;;;;;;;6.70;3.60;;;;;;;26.95;67.56;99821.47;4985084;28;20441;-77
2022/06/24 08:46:49;;;;;;;4.50;3.75;;;;;;;27.01;69.15;99870.69;5018093;28;20042;-77
2022/06/24 08:49:15;;;;;;;8.82;3.78;;;;;;;26.38;77.85;99910.75;4985397;28;20161;-77
2022/06/24 08:51:42;;;;;;;6.57;4.13;;;;;;;27.05;72.71;99930.06;5017778;28;20034;-77
2022/06/24 08:54:09;;;;;;;5.07;3.90;;;;;;;26.50;73.27;99820.03;4986336;28;20029;-77
2022/06/24 08:56:35;;;;;;;4.00;3.60;;;;;;;26.78;70.95;99834.81;4987198;28;20031;-77
2022/06/24 08:59:01;;;;;;;4.82;3.90;;;;;;;27.05;71.73;99919.13;5001952;28;20318;-77
2022/06/24 09:01:26;;;;;;;5.68;3.55;;;;;;;27.42;69.00;99900.31;5001456;28;20032;-77
2022/06/24 09:03:52;;;;;;;4.32;3.22;;;;;;;27.00;75.76;99968.47;5001562;28;20512;-77
2022/06/24 09:06:18;;;;;;;6.55;3.80;;;;;;;26.80;71.75;99832.59;5001898;28;20045;-77
2022/06/24 09:08:51;;;;;;;5.82;3.83;;;;;;;27.85;69.72;99971.56;5001743;28;20026;-77
2022/06/24 09:11:18;;;;;;;6.55;4.20;;;;;;;28.16;69.43;100016.63;4985302;28;20042;-74
2022/06/24 09:14:01;;;;;;;7.43;3.92;;;;;;;28.03;67.40;99885.72;4986675;28;20647;-74
2022/06/24 09:16:26;;;;;;;6.65;3.65;;;;;;;27.86;65.13;99809.47;4987403;28;20030;-77
2022/06/24 09:18:54;;;;;;;3.42;3.13;;;;;;;27.60;66.07;99787.09;4992646;28;20030;-76
2022/06/24 09:21:25;;;;;;;8.27;3.58;;;;;;;27.98;65.79;99853.69;4986448;28;20073;-77
2022/06/24 09:23:52;;;;;;;6.82;3.78;;;;;;;27.66;62.00;99668.03;4986351;28;20475;-75
2022/06/24 09:26:27;;;;;;;6.53;3.67;;;;;;;27.41;65.66;99735.06;5017417;28;20246;-77
2022/06/24 09:28:55;;;;;;;5.05;3.72;;;;;;;27.40;66.79;99749.06;5017416;28;20044;-77
2022/06/24 09:31:24;;;;;;;5.32;3.75;;;;;;;26.97;68.91;99722.53;5017011;28;20026;-74
2022/06/24 09:33:50;;;;;;;6.05;3.97;;;;;;;28.36;66.53;99932.34;4986736;28;20073;-78
2022/06/24 09:36:16;;;;;;;6.70;3.47;;;;;;;28.30;63.09;99813.59;5001334;28;20023;-77
2022/06/24 09:39:00;;;;;;;5.63;4.13;;;;;;;29.03;59.36;99822.88;5017700;28;20438;-77
2022/06/24 09:41:26;;;;;;;5.57;4.18;;;;;;;28.30;59.10;99624.25;4977153;28;20060;-78
2022/06/24 09:43:52;;;;;;;4.90;4.32;;;;;;;28.60;60.26;99738.09;4976454;28;20116;-77
2022/06/24 09:46:23;;;;;;;6.10;4.25;;;;;;;28.63;58.87;99676.25;4986639;28;20050;-75
2022/06/24 09:48:57;;;;;;;7.82;4.00;;;;;;;28.87;60.27;99780.38;4986619;28;20117;-75
2022/06/24 09:51:22;;;;;;;5.82;3.90;;;;;;;29.44;58.34;99816.47;4986018;28;20812;-75
2022/06/24 09:53:49;;;;;;;6.15;3.92;;;;;;;29.39;56.77;99742.38;4986046;28;20046;-76
2022/06/24 09:56:14;;;;;;;7.03;3.95;;;;;;;28.60;59.90;99691.41;4986430;28;20184;-75
2022/06/24 09:58:42;;;;;;;4.70;4.13;;;;;;;29.96;58.61;99908.78;5018018;28;20373;-75
2022/06/24 10:01:08;;;;;;;6.30;4.20;;;;;;;29.78;55.84;99753.78;4976333;28;20089;-75
2022/06/24 10:03:35;;;;;;;7.88;3.78;;;;;;;29.85;57.74;99823.78;4985802;28;20094;-75
2022/06/24 10:06:08;;;;;;;3.78;3.47;;;;;;;30.65;54.66;99826.59;4984942;28;20034;-76
2022/06/24 10:08:35;;;;;;;4.68;3.67;;;;;;;30.80;52.94;99747.41;5001295;28;20062;-76
2022/06/24 10:11:06;;;;;;;6.50;3.78;;;;;;;31.30;53.38;99871.03;5017513;28;20030;-75
2022/06/24 10:13:33;;;;;;;5.75;3.72;;;;;;;30.88;52.26;99714.38;4984528;28;20038;-75
2022/06/24 10:16:01;;;;;;;4.30;3.67;;;;;;;31.48;51.90;99823.06;4997065;28;20037;-75
2022/06/24 10:18:34;;;;;;;8.32;3.85;;;;;;;31.92;49.44;99752.06;4984629;28;20046;-76
2022/06/24 10:21:03;;;;;;;5.88;3.72;;;;;;;31.76;48.57;99613.81;4980729;28;20440;-75
2022/06/24 10:23:36;;;;;;;5.40;3.83;;;;;;;31.66;49.54;99660.28;4985576;28;20480;-76
2022/06/24 10:26:23;;;;;;;4.43;3.65;;;;;;;31.06;50.65;99610.44;5013953;28;20038;-75
2022/06/24 10:29:03;;;;;;;3.95;3.30;;;;;;;30.53;53.06;99611.56;4999884;28;20069;-75
2022/06/24 10:31:52;;;;;;;4.70;3.95;;;;;;;30.61;52.08;99566.72;5017523;28;20042;-75
2022/06/24 10:34:26;;;;;;;6.25;4.55;;;;;;;31.34;51.92;99721.16;4999001;28;20877;-75
2022/06/24 10:36:54;;;;;;;5.60;4.07;;;;;;;31.13;49.94;99555.63;5017360;28;20141;-75
2022/06/24 10:39:21;;;;;;;5.85;3.63;;;;;;;32.13;49.82;99768.72;4976560;28;20033;-76
2022/06/24 10:42:01;;;;;;;5.60;3.60;;;;;;;31.87;47.07;99558.25;5001686;28;20069;-76
2022/06/24 10:44:29;;;;;;;5.82;3.90;;;;;;;31.58;48.80;99614.22;4989962;28;20022;-76
2022/06/24 10:47:04;;;;;;;7.22;3.70;;;;;;;31.64;47.80;99514.41;5004802;28;20022;-75
2022/06/24 10:49:54;;;;;;;4.60;3.85;;;;;;;31.13;47.42;99386.69;5016839;28;20034;-75
2022/06/24 10:52:34;;;;;;;8.35;4.20;;;;;;;31.85;46.22;99511.69;5004474;28;20034;-75
2022/06/24 10:55:14;;;;;;;4.65;3.15;;;;;;;32.42;45.01;99548.13;5000482;28;20045;-75
2022/06/24 10:57:40;;;;;;;4.28;3.40;;;;;;;32.16;45.29;99475.41;5018183;28;20488;-74
2022/06/24 11:00:12;;;;;;;;;;;;;;;32.44;43.17;99353.31;5004253;28;20153;-75
2022/06/24 11:02:37;;;;;;;4.00;3.40;;;;;;;32.75;42.72;99421.06;4988652;28;19917;-75
2022/06/24 11:05:06;;;;;;;;;;;;;;;32.07;41.38;99117.81;4989300;28;20352;-75
2022/06/24 11:07:31;;;;;;;6.78;3.08;;;;;;;32.46;42.53;99304.06;5003639;28;19964;-75
2022/06/24 11:09:56;;;;;;;;;;;;;;;31.83;43.05;99213.22;4995552;28;20541;-75
2022/06/24 11:12:30;;;;;;;8.50;3.70;;;;;;;33.16;41.60;99430.38;4995695;28;19925;-75
2022/06/24 11:14:55;;;;;;;4.10;3.63;;;;;;;32.59;40.11;99086.69;5019923;28;20049;-75
2022/06/24 11:17:25;;;;;;;;;;;;;;;32.95;41.00;99290.28;5004032;28;20019;-75
2022/06/24 11:19:50;;;;;;;4.20;3.30;;;;;;;33.87;40.46;99451.13;5003128;28;19914;-75
2022/06/24 11:22:16;;;;;;;;;;;;;;;32.51;40.49;99077.38;4988969;28;20283;-75
2022/06/24 11:24:45;;;;;;;7.82;3.63;;;;;;;33.11;39.60;99120.97;4988198;28;19963;-75
2022/06/24 11:27:11;;;;;;;4.22;3.83;;;;;;;33.57;40.27;99313.09;4988380;28;20029;-75
2022/06/24 11:29:48;;;;;;;;;;;;;;;33.58;37.40;99090.63;4988642;28;20218;-75
2022/06/24 11:32:13;;;;;;;12.32;3.22;;;;;;;33.69;37.05;99029.19;4988652;28;19925;-75
2022/06/24 11:34:39;;;;;;;;;;;;;;;31.81;39.11;98768.56;4988531;28;20395;-75